Time;durP1;ratioP1;P1;durP2;ratioP2;P2;SDS_P1;SDS_P2;PMS_P1;PMS_P2;Temp;Humidity;BMP_temperature;BMP_pressure;BME280_temperature;BME280_humidity;BME280_pressure;Samples;Min_cycle;Max_cycle;Signal;HPM_P1;HPM_P2
2023/10/06 00:04:38;;;;;;;4.00;1.70;;;;;;;11.80;100.00;99355.31;15286075;19;20021;-51
2023/10/06 00:10:13;;;;;;;4.22;1.90;;;;;;;11.74;100.00;99368.53;15280580;19;20035;-47
2023/10/06 00:15:43;;;;;;;4.03;1.83;;;;;;;11.72;100.00;99372.22;15279153;19;20015;-47
2023/10/06 00:21:14;;;;;;;3.88;1.63;;;;;;;11.70;100.00;99367.97;15286317;19;20019;-49
2023/10/06 00:26:42;;;;;;;3.42;1.80;;;;;;;11.69;100.00;99358.16;15282554;19;20024;-47
2023/10/06 00:37:45;;;;;;;3.90;1.75;;;;;;;11.59;100.00;99360.03;15292062;19;20025;-51
2023/10/06 00:43:16;;;;;;;4.03;1.90;;;;;;;11.53;100.00;99366.88;15298962;19;20090;-48
2023/10/06 00:48:41;;;;;;;6.17;1.97;;;;;;;11.45;100.00;99354.09;15286656;19;20025;-47
2023/10/06 00:54:06;;;;;;;3.15;1.73;;;;;;;11.40;100.00;99357.22;15299246;19;20014;-47
2023/10/06 00:59:35;;;;;;;3.50;1.80;;;;;;;11.31;100.00;99355.41;15296438;19;20081;-50
2023/10/06 01:05:00;;;;;;;4.25;1.80;;;;;;;11.27;100.00;99353.97;15295972;19;20021;-47
2023/10/06 01:10:28;;;;;;;5.25;1.88;;;;;;;11.23;100.00;99355.25;15291158;19;20018;-51
2023/10/06 01:15:56;;;;;;;3.58;1.80;;;;;;;11.19;100.00;99361.94;15294564;19;20018;-50
2023/10/06 01:21:28;;;;;;;3.80;1.90;;;;;;;11.14;100.00;99365.06;15288729;19;20018;-50
2023/10/06 01:26:58;;;;;;;4.78;1.80;;;;;;;11.12;100.00;99368.88;15290055;19;20014;-49
2023/10/06 01:32:23;;;;;;;4.20;1.90;;;;;;;11.10;100.00;99367.19;15295552;19;20028;-49
2023/10/06 01:37:51;;;;;;;4.20;1.70;;;;;;;11.12;100.00;99360.78;15286004;19;20015;-47
2023/10/06 01:43:22;;;;;;;3.88;1.90;;;;;;;11.14;100.00;99361.50;15292687;19;20387;-48
2023/10/06 01:48:47;;;;;;;5.03;1.98;;;;;;;11.18;100.00;99360.22;15289193;19;20028;-51
2023/10/06 01:54:12;;;;;;;3.40;1.80;;;;;;;11.17;100.00;99345.03;15286553;19;20096;-48
2023/10/06 01:59:40;;;;;;;3.75;1.92;;;;;;;11.13;100.00;99349.00;15292603;19;20022;-50
2023/10/06 02:05:12;;;;;;;2.88;1.80;;;;;;;11.10;100.00;99345.59;15292217;19;20014;-51
2023/10/06 02:10:32;;;;;;;5.57;2.40;;;;;;;11.05;100.00;99344.34;15286887;19;20058;-47
2023/10/06 02:15:59;;;;;;;3.38;1.90;;;;;;;11.01;100.00;99351.84;15290675;19;20034;-47
2023/10/06 02:21:28;;;;;;;3.22;1.85;;;;;;;10.97;100.00;99344.16;15292690;19;20018;-52
2023/10/06 02:27:01;;;;;;;3.45;1.75;;;;;;;10.94;100.00;99345.31;15278295;19;20566;-51
2023/10/06 02:32:28;;;;;;;;;;;;;;;10.90;100.00;99346.56;15292894;19;20048;-48
2023/10/06 02:37:53;;;;;;;4.47;2.00;;;;;;;10.85;100.00;99351.56;15287403;19;19923;-48
2023/10/06 02:43:22;;;;;;;4.70;1.88;;;;;;;10.77;100.00;99336.06;15290021;19;20014;-48
2023/10/06 02:48:53;;;;;;;3.95;1.95;;;;;;;10.69;100.00;99335.94;15284406;19;20021;-48
2023/10/06 02:54:27;;;;;;;3.30;2.00;;;;;;;10.63;100.00;99332.78;15289684;19;20018;-48
2023/10/06 02:59:56;;;;;;;4.13;1.80;;;;;;;10.56;100.00;99336.16;15283607;19;20018;-51
2023/10/06 03:05:31;;;;;;;3.58;1.95;;;;;;;10.50;100.00;99336.75;15287844;19;20037;-47
2023/10/06 03:10:57;;;;;;;5.45;2.10;;;;;;;10.43;100.00;99353.44;15284412;19;20010;-53
2023/10/06 03:16:25;;;;;;;5.60;2.30;;;;;;;10.39;100.00;99353.84;15284950;19;20436;-49
2023/10/06 03:21:56;;;;;;;4.40;2.10;;;;;;;10.31;100.00;99376.91;15288322;19;20015;-47
2023/10/06 03:27:23;;;;;;;3.90;1.90;;;;;;;10.28;100.00;99373.66;15283516;19;20027;-50
2023/10/06 03:32:49;;;;;;;4.88;2.10;;;;;;;10.22;100.00;99372.34;15281973;19;20025;-50
2023/10/06 03:38:37;;;;;;;3.47;1.90;;;;;;;10.18;100.00;99373.59;15280757;19;20019;-51
2023/10/06 03:44:03;;;;;;;4.18;1.90;;;;;;;10.16;100.00;99373.75;15287491;19;20023;-49
2023/10/06 03:49:33;;;;;;;5.07;1.90;;;;;;;10.14;100.00;99369.47;15282113;19;20023;-50
2023/10/06 03:55:00;;;;;;;4.53;2.33;;;;;;;10.11;100.00;99370.59;15285784;19;20336;-51
2023/10/06 04:00:27;;;;;;;4.13;1.92;;;;;;;10.08;100.00;99362.78;15286178;19;20014;-48
2023/10/06 04:05:52;;;;;;;4.47;2.10;;;;;;;10.05;100.00;99365.75;15294421;19;20021;-47
2023/10/06 04:11:20;;;;;;;5.25;2.10;;;;;;;10.06;100.00;99371.97;15295794;19;20014;-47
2023/10/06 04:16:46;;;;;;;4.57;1.83;;;;;;;10.05;100.00;99386.44;15296835;19;20018;-49
2023/10/06 04:22:11;;;;;;;3.28;1.80;;;;;;;10.07;100.00;99387.16;15301437;19;20028;-50
2023/10/06 04:27:39;;;;;;;5.05;1.98;;;;;;;10.03;100.00;99390.09;15295826;19;20024;-47
2023/10/06 04:33:00;;;;;;;5.20;2.07;;;;;;;10.04;100.00;99385.59;15299051;19;20481;-49
2023/10/06 04:38:26;;;;;;;4.70;2.00;;;;;;;10.01;100.00;99385.84;15287565;19;20010;-49
2023/10/06 04:43:53;;;;;;;3.70;1.90;;;;;;;9.96;100.00;99382.69;15298191;19;20018;-48
2023/10/06 04:49:18;;;;;;;4.38;1.90;;;;;;;9.91;100.00;99382.25;15290972;19;20025;-49
2023/10/06 04:54:42;;;;;;;6.85;2.20;;;;;;;9.89;100.00;99376.16;15298957;19;20029;-48
2023/10/06 05:00:19;;;;;;;3.25;1.90;;;;;;;9.84;100.00;99382.78;15296567;19;20018;-48
2023/10/06 05:05:44;;;;;;;5.07;2.00;;;;;;;9.77;100.00;99380.75;15294986;19;20025;-48
2023/10/06 05:11:11;;;;;;;4.20;2.20;;;;;;;9.69;100.00;99387.66;15293064;19;20035;-52
2023/10/06 05:16:38;;;;;;;3.70;1.98;;;;;;;9.64;100.00;99399.78;15292526;19;20097;-49
2023/10/06 05:22:03;;;;;;;3.95;2.10;;;;;;;9.63;100.00;99400.78;15294307;19;20033;-53
2023/10/06 05:27:28;;;;;;;5.80;2.20;;;;;;;9.58;100.00;99408.41;15291596;19;20074;-49
2023/10/06 05:32:58;;;;;;;4.25;1.98;;;;;;;9.58;100.00;99413.78;15293823;19;20021;-50
2023/10/06 05:38:23;;;;;;;5.13;2.20;;;;;;;9.53;100.00;99425.78;15286163;19;20013;-48
2023/10/06 05:43:49;;;;;;;3.63;1.90;;;;;;;9.52;100.00;99424.06;15289464;19;20058;-52
2023/10/06 05:49:21;;;;;;;7.50;2.28;;;;;;;9.52;100.00;99434.00;15284543;19;20404;-48
2023/10/06 05:54:46;;;;;;;7.57;2.50;;;;;;;9.58;100.00;99435.31;15288716;19;20018;-49
2023/10/06 06:00:18;;;;;;;4.88;2.15;;;;;;;9.58;100.00;99416.47;15288553;19;20035;-50
2023/10/06 06:05:47;;;;;;;4.13;1.95;;;;;;;9.58;100.00;99428.06;15285647;19;20022;-46
2023/10/06 06:11:11;;;;;;;4.10;2.05;;;;;;;9.57;100.00;99437.13;15284226;19;20021;-47
2023/10/06 06:16:36;;;;;;;6.05;2.45;;;;;;;9.58;100.00;99421.84;15286408;19;20044;-47
2023/10/06 06:22:05;;;;;;;3.55;1.75;;;;;;;9.61;100.00;99414.38;15293066;19;20019;-51
2023/10/06 06:27:31;;;;;;;3.60;1.70;;;;;;;9.65;100.00;99417.66;15283696;19;20070;-50
2023/10/06 06:32:56;;;;;;;3.60;2.15;;;;;;;9.69;100.00;99411.03;15284926;19;20034;-49
2023/10/06 06:38:25;;;;;;;3.50;1.90;;;;;;;9.77;100.00;99402.28;15286399;19;20014;-49
2023/10/06 06:43:54;;;;;;;3.60;2.10;;;;;;;9.79;100.00;99394.94;15280481;19;20019;-49
2023/10/06 06:49:19;;;;;;;3.45;1.90;;;;;;;9.85;100.00;99389.88;15284909;19;20558;-48
2023/10/06 06:54:47;;;;;;;3.55;1.80;;;;;;;9.92;100.00;99405.50;15265183;19;20022;-52
2023/10/06 07:00:18;;;;;;;4.50;2.10;;;;;;;9.95;100.00;99434.81;15284470;19;20028;-49
2023/10/06 07:05:43;;;;;;;4.27;2.03;;;;;;;10.06;100.00;99447.38;15286874;19;20531;-51
2023/10/06 07:11:15;;;;;;;4.03;2.22;;;;;;;10.12;100.00;99449.53;15286059;19;20081;-49
2023/10/06 07:16:42;;;;;;;4.15;2.00;;;;;;;10.22;100.00;99446.91;15277597;19;20025;-48
2023/10/06 07:22:07;;;;;;;4.72;1.85;;;;;;;10.32;100.00;99455.88;15287396;19;20031;-50
2023/10/06 07:27:35;;;;;;;4.03;2.00;;;;;;;10.46;100.00;99438.53;15282608;19;20472;-52
2023/10/06 07:33:00;;;;;;;5.72;2.10;;;;;;;10.61;100.00;99430.94;15282400;19;20047;-50
2023/10/06 07:38:24;;;;;;;3.53;2.00;;;;;;;10.74;100.00;99418.06;15291014;19;20674;-49
2023/10/06 07:43:52;;;;;;;3.63;1.58;;;;;;;10.89;100.00;99413.13;15300544;19;20363;-52
2023/10/06 07:49:16;;;;;;;2.88;1.70;;;;;;;11.13;100.00;99381.34;15290387;19;20014;-53
2023/10/06 07:54:42;;;;;;;2.83;1.80;;;;;;;11.27;100.00;99393.59;15300719;19;20014;-51
2023/10/06 08:00:09;;;;;;;3.72;1.63;;;;;;;11.39;100.00;99376.25;15299001;19;20486;-50
2023/10/06 08:05:34;;;;;;;2.80;1.60;;;;;;;11.59;100.00;99389.72;15298794;19;20009;-50
2023/10/06 08:11:02;;;;;;;4.53;1.70;;;;;;;11.71;100.00;99402.06;15296688;19;20014;-48
2023/10/06 08:16:31;;;;;;;4.90;1.83;;;;;;;11.84;100.00;99396.34;15295068;19;20015;-52
2023/10/06 08:21:55;;;;;;;4.45;1.80;;;;;;;11.96;100.00;99381.69;15294955;19;20032;-50
2023/10/06 08:27:23;;;;;;;3.88;1.70;;;;;;;12.18;100.00;99380.53;15295537;19;20547;-51
2023/10/06 08:32:51;;;;;;;3.97;1.60;;;;;;;12.40;100.00;99380.31;15270266;19;20014;-50
2023/10/06 08:38:17;;;;;;;3.75;1.50;;;;;;;12.63;100.00;99378.03;15290841;19;20082;-52
2023/10/06 08:43:46;;;;;;;3.50;1.83;;;;;;;12.90;100.00;99354.66;15295013;19;20025;-50
2023/10/06 08:49:19;;;;;;;3.10;1.63;;;;;;;13.10;100.00;99355.38;15286609;19;20348;-49
2023/10/06 08:54:52;;;;;;;2.95;1.42;;;;;;;13.29;100.00;99327.28;15288902;19;20536;-49
2023/10/06 09:00:19;;;;;;;3.20;1.35;;;;;;;13.59;100.00;99310.78;15297871;19;20018;-49
2023/10/06 09:05:50;;;;;;;2.33;1.30;;;;;;;13.82;100.00;99306.53;15295453;19;20029;-51
2023/10/06 09:11:15;;;;;;;4.53;1.40;;;;;;;14.08;100.00;99294.81;15294187;19;20014;-49
2023/10/06 09:16:57;;;;;;;2.97;1.30;;;;;;;14.34;100.00;99272.22;15294538;19;20472;-48
2023/10/06 09:22:29;;;;;;;3.92;1.40;;;;;;;14.54;100.00;99278.19;15298077;19;20015;-50
2023/10/06 09:27:53;;;;;;;2.75;1.30;;;;;;;14.76;100.00;99255.03;15287980;19;20031;-51
2023/10/06 09:33:24;;;;;;;3.15;1.27;;;;;;;14.84;100.00;99250.66;15292142;19;20022;-53
2023/10/06 09:38:54;;;;;;;2.65;1.27;;;;;;;14.87;100.00;99255.75;15289672;19;20086;-51
2023/10/06 09:44:22;;;;;;;2.83;1.10;;;;;;;14.99;100.00;99253.53;15296628;19;20036;-49
2023/10/06 09:49:49;;;;;;;3.38;1.30;;;;;;;15.14;100.00;99251.84;15292695;19;20018;-52
2023/10/06 09:55:19;;;;;;;3.00;1.30;;;;;;;15.25;100.00;99243.34;15294537;19;20003;-53
2023/10/06 10:00:49;;;;;;;2.33;1.23;;;;;;;15.36;100.00;99261.13;15285414;19;20022;-51
2023/10/06 10:06:17;;;;;;;4.22;1.33;;;;;;;15.36;100.00;99244.84;15293119;19;20039;-51
2023/10/06 10:11:45;;;;;;;3.10;1.30;;;;;;;15.54;100.00;99238.38;15290365;19;20033;-51
2023/10/06 10:17:19;;;;;;;2.65;1.20;;;;;;;15.63;100.00;99244.66;15289399;19;20022;-50
2023/10/06 10:22:43;;;;;;;2.22;1.20;;;;;;;15.74;100.00;99240.69;15293967;19;20371;-51
2023/10/06 10:28:19;;;;;;;2.45;1.30;;;;;;;15.90;100.00;99234.38;15295859;19;20018;-51
2023/10/06 10:33:46;;;;;;;2.58;1.27;;;;;;;15.94;100.00;99217.53;15286277;19;20029;-52
2023/10/06 10:39:18;;;;;;;2.95;1.23;;;;;;;15.98;100.00;99205.31;15287627;19;20014;-50
2023/10/06 10:44:45;;;;;;;2.38;1.30;;;;;;;16.10;100.00;99196.75;15292126;19;20574;-53
2023/10/06 10:50:11;;;;;;;2.55;1.15;;;;;;;16.22;100.00;99186.34;15307641;19;20696;-53
2023/10/06 10:55:35;;;;;;;3.15;1.23;;;;;;;16.31;100.00;99183.38;15330144;19;20018;-54
2023/10/06 11:01:27;;;;;;;2.15;1.23;;;;;;;16.41;100.00;99171.41;15342864;19;20019;-49
2023/10/06 11:06:55;;;;;;;2.42;1.00;;;;;;;16.45;100.00;99165.44;15292795;19;20573;-49
2023/10/06 11:12:28;;;;;;;2.83;1.20;;;;;;;16.60;100.00;99161.91;15287725;19;20086;-50
2023/10/06 11:17:55;;;;;;;3.97;1.15;;;;;;;16.72;100.00;99167.78;15287229;19;20078;-49
2023/10/06 11:23:20;;;;;;;1.77;1.10;;;;;;;16.84;100.00;99160.88;15292210;19;20023;-48
2023/10/06 11:28:50;;;;;;;1.65;1.17;;;;;;;17.00;100.00;99148.16;15285361;19;20422;-52
2023/10/06 11:34:18;;;;;;;2.03;1.02;;;;;;;17.21;100.00;99145.59;15280579;19;20090;-50
2023/10/06 11:39:44;;;;;;;2.08;1.13;;;;;;;17.18;100.00;99139.63;15289240;19;20747;-52
2023/10/06 11:45:24;;;;;;;2.78;1.05;;;;;;;17.14;100.00;99113.84;15287007;19;20018;-52
2023/10/06 11:50:51;;;;;;;2.75;1.13;;;;;;;17.28;100.00;99121.19;15288381;19;20011;-50
2023/10/06 11:56:19;;;;;;;3.70;1.10;;;;;;;17.47;100.00;99121.63;15286401;19;20077;-49
2023/10/06 12:01:45;;;;;;;2.42;1.23;;;;;;;17.58;100.00;99114.88;15288168;19;20022;-50
2023/10/06 12:07:23;;;;;;;1.85;1.15;;;;;;;17.70;100.00;99105.13;15278940;19;20467;-48
2023/10/06 12:12:48;;;;;;;1.33;1.02;;;;;;;17.83;100.00;99102.56;15286346;19;20018;-49
2023/10/06 12:18:14;;;;;;;3.80;1.20;;;;;;;17.96;100.00;99103.75;15279762;19;20030;-51
2023/10/06 12:23:42;;;;;;;2.40;1.20;;;;;;;18.07;100.00;99086.09;15294798;19;20033;-50
2023/10/06 12:29:07;;;;;;;3.25;1.10;;;;;;;18.19;100.00;99065.47;15296390;19;20022;-48
2023/10/06 12:34:31;;;;;;;2.08;1.20;;;;;;;18.29;100.00;99049.59;15298146;19;20086;-54
2023/10/06 12:39:59;;;;;;;4.88;1.30;;;;;;;18.32;100.00;99051.09;15295246;19;20010;-54
2023/10/06 12:45:25;;;;;;;2.38;1.10;;;;;;;18.50;100.00;99049.78;15300680;19;20017;-47
2023/10/06 12:50:50;;;;;;;2.67;1.33;;;;;;;18.42;100.00;99053.50;15298851;19;20019;-51
2023/10/06 12:56:18;;;;;;;2.25;1.17;;;;;;;18.40;100.00;99041.94;15299253;19;20014;-54
2023/10/06 13:01:43;;;;;;;1.58;1.10;;;;;;;18.56;100.00;99030.75;15300962;19;20032;-52
2023/10/06 13:07:08;;;;;;;1.95;1.10;;;;;;;18.54;100.00;99037.41;15296789;19;20085;-53
2023/10/06 13:12:39;;;;;;;2.58;1.27;;;;;;;18.56;100.00;99028.00;15293824;19;20531;-51
2023/10/06 13:18:06;;;;;;;2.47;1.20;;;;;;;18.48;100.00;99012.63;15294895;19;20013;-47
2023/10/06 13:23:32;;;;;;;2.63;1.27;;;;;;;18.68;100.00;99011.09;15299376;19;20014;-48
2023/10/06 13:29:00;;;;;;;2.08;1.05;;;;;;;18.79;100.00;99000.44;15291486;19;20078;-51
2023/10/06 13:34:27;;;;;;;2.13;1.10;;;;;;;18.91;100.00;98984.34;15291780;19;20018;-53
2023/10/06 13:39:50;;;;;;;2.85;1.20;;;;;;;18.88;100.00;98975.69;15293560;19;20058;-52
2023/10/06 13:45:20;;;;;;;2.45;1.10;;;;;;;18.79;100.00;98962.22;15290038;19;20014;-52
2023/10/06 13:50:53;;;;;;;2.95;1.40;;;;;;;18.79;100.00;98954.03;15292127;19;20018;-54
2023/10/06 13:56:18;;;;;;;3.35;1.25;;;;;;;18.54;100.00;98970.06;15291174;19;20581;-51
2023/10/06 14:01:47;;;;;;;4.03;1.30;;;;;;;18.75;100.00;98966.41;15294912;19;20070;-53
2023/10/06 14:07:12;;;;;;;1.80;1.10;;;;;;;18.89;98.22;98956.41;15290129;19;20013;-51
2023/10/06 14:12:37;;;;;;;2.10;1.20;;;;;;;19.01;93.53;98948.50;15291063;19;20021;-53
2023/10/06 14:18:07;;;;;;;3.15;1.30;;;;;;;18.87;89.21;98950.28;15281192;19;20021;-53
2023/10/06 14:23:35;;;;;;;2.67;1.15;;;;;;;18.87;92.46;98952.19;15295027;19;20022;-53
2023/10/06 14:29:03;;;;;;;2.10;1.00;;;;;;;19.00;92.97;98946.81;15287556;19;20018;-53
2023/10/06 14:34:56;;;;;;;2.13;1.17;;;;;;;19.21;85.33;98945.03;15287545;19;20028;-52
2023/10/06 14:46:03;;;;;;;4.00;1.10;;;;;;;18.98;85.92;98946.19;15285345;19;20018;-53
2023/10/06 14:51:31;;;;;;;2.78;1.33;;;;;;;18.97;85.57;98944.50;15282204;19;20022;-53
2023/10/06 14:56:56;;;;;;;3.08;1.27;;;;;;;18.91;91.27;98935.22;15285722;19;20014;-54
2023/10/06 15:02:22;;;;;;;2.05;1.10;;;;;;;18.86;91.90;98932.22;15286201;19;20026;-51
2023/10/06 15:07:50;;;;;;;1.30;1.10;;;;;;;18.84;92.63;98930.75;15283607;19;20369;-49
2023/10/06 15:13:15;;;;;;;1.88;1.20;;;;;;;18.85;88.70;98927.81;15289155;19;20011;-54
2023/10/06 15:18:42;;;;;;;1.90;1.20;;;;;;;18.98;93.20;98907.97;15285604;19;20010;-50
2023/10/06 15:24:14;;;;;;;3.53;1.30;;;;;;;19.13;88.81;98906.94;15284662;19;20018;-53
2023/10/06 15:29:41;;;;;;;2.45;1.40;;;;;;;19.21;89.38;98898.59;15287448;19;20761;-49
2023/10/06 15:35:07;;;;;;;1.50;1.25;;;;;;;18.98;88.81;98898.91;15285631;19;20023;-51
2023/10/06 15:40:35;;;;;;;2.33;1.40;;;;;;;18.69;88.45;98895.41;15287730;19;20417;-53
2023/10/06 15:46:03;;;;;;;2.55;1.60;;;;;;;18.46;89.08;98913.75;15285162;19;20370;-53
2023/10/06 15:51:29;;;;;;;1.50;1.23;;;;;;;18.14;95.79;98910.63;15283413;19;20025;-50
2023/10/06 15:56:57;;;;;;;2.28;1.40;;;;;;;17.94;91.00;98909.56;15282804;19;20009;-54
2023/10/06 16:02:23;;;;;;;3.00;1.40;;;;;;;17.70;93.48;98909.78;15302483;19;20017;-50
2023/10/06 16:07:50;;;;;;;1.63;1.20;;;;;;;17.49;95.47;98905.19;15295858;19;20090;-47
2023/10/06 16:13:18;;;;;;;2.47;1.40;;;;;;;17.40;100.00;98909.09;15299284;19;20533;-50
2023/10/06 16:18:44;;;;;;;2.65;1.40;;;;;;;17.23;100.00;98914.75;15288085;19;20014;-49
2023/10/06 16:24:11;;;;;;;2.30;1.30;;;;;;;17.06;100.00;98910.59;15296759;19;20018;-48
2023/10/06 16:29:39;;;;;;;3.30;1.40;;;;;;;16.89;100.00;98923.56;15298890;19;20023;-52
2023/10/06 16:35:05;;;;;;;1.95;1.30;;;;;;;16.74;100.00;98918.13;15292777;19;20006;-49
2023/10/06 16:40:31;;;;;;;2.17;1.55;;;;;;;16.61;100.00;98910.63;15296708;19;20014;-49
2023/10/06 16:45:59;;;;;;;2.58;1.65;;;;;;;16.43;100.00;98908.28;15296134;19;20010;-50
2023/10/06 16:51:23;;;;;;;1.42;1.20;;;;;;;16.26;100.00;98905.75;15295224;19;20014;-49
2023/10/06 16:56:48;;;;;;;2.08;1.42;;;;;;;16.16;100.00;98907.91;15289572;19;20025;-50
2023/10/06 17:02:15;;;;;;;2.92;1.63;;;;;;;16.10;100.00;98897.75;15297874;19;20015;-50
2023/10/06 17:07:41;;;;;;;3.38;2.42;;;;;;;16.07;100.00;98903.56;15288597;19;20011;-47
2023/10/06 17:13:07;;;;;;;2.83;2.00;;;;;;;16.00;100.00;98903.44;15296364;19;20488;-49
2023/10/06 17:18:35;;;;;;;2.70;1.73;;;;;;;15.96;100.00;98902.97;15290545;19;20014;-48
2023/10/06 17:24:04;;;;;;;2.85;1.85;;;;;;;15.97;100.00;98904.66;15296090;19;20015;-47
2023/10/06 17:29:29;;;;;;;4.00;2.00;;;;;;;15.90;100.00;98911.88;15285801;19;20357;-47
2023/10/06 17:34:56;;;;;;;2.42;1.38;;;;;;;15.76;100.00;98905.31;15291345;19;20018;-47
2023/10/06 17:40:22;;;;;;;2.60;1.45;;;;;;;15.70;100.00;98908.78;15294075;19;20014;-48
2023/10/06 17:45:47;;;;;;;3.33;1.55;;;;;;;15.63;100.00;98913.28;15291905;19;20027;-47
2023/10/06 17:51:24;;;;;;;2.63;1.40;;;;;;;15.62;100.00;98917.00;15291087;19;20034;-50
2023/10/06 17:56:50;;;;;;;1.77;1.35;;;;;;;15.71;100.00;98921.34;14773073;19;10000651;-52
2023/10/06 18:02:16;;;;;;;2.83;1.60;;;;;;;15.57;100.00;98906.69;15280406;19;20018;-51
2023/10/06 18:07:43;;;;;;;2.28;1.30;;;;;;;15.53;100.00;98911.63;15282908;19;20015;-47
2023/10/06 18:13:09;;;;;;;2.15;1.38;;;;;;;15.45;100.00;98897.28;15284106;19;20025;-47
2023/10/06 18:18:35;;;;;;;2.00;1.42;;;;;;;15.43;100.00;98886.59;15278263;19;20597;-47
2023/10/06 18:24:02;;;;;;;3.67;1.60;;;;;;;15.39;100.00;98874.41;15282235;19;20081;-48
2023/10/06 18:29:27;;;;;;;1.88;1.35;;;;;;;15.37;100.00;98869.16;15285546;19;20014;-51
2023/10/06 18:34:51;;;;;;;3.25;1.65;;;;;;;15.43;100.00;98874.91;15278261;19;20090;-47
2023/10/06 18:40:19;;;;;;;1.92;1.30;;;;;;;15.40;100.00;98892.41;15283527;19;20028;-50
2023/10/06 18:45:43;;;;;;;3.83;1.30;;;;;;;15.39;100.00;98880.69;15282090;19;20033;-51
2023/10/06 18:51:10;;;;;;;3.00;1.50;;;;;;;15.39;100.00;98867.09;15277709;19;20018;-49
2023/10/06 18:56:37;;;;;;;1.83;1.30;;;;;;;15.43;100.00;98851.28;15275794;19;20097;-49
2023/10/06 19:02:02;;;;;;;4.40;1.58;;;;;;;15.46;100.00;98850.09;15282251;19;20089;-47
2023/10/06 19:07:27;;;;;;;4.20;1.55;;;;;;;15.40;100.00;98865.25;15266226;19;20018;-50
2023/10/06 19:12:55;;;;;;;2.00;1.35;;;;;;;15.31;100.00;98859.03;15281310;19;20019;-49
2023/10/06 19:18:21;;;;;;;3.35;1.42;;;;;;;15.23;100.00;98875.34;15271085;19;20363;-53
2023/10/06 19:23:45;;;;;;;2.63;1.30;;;;;;;15.20;100.00;98886.59;15282422;19;20028;-48
2023/10/06 19:29:14;;;;;;;3.67;1.45;;;;;;;15.15;100.00;98878.13;15276879;19;20045;-49
2023/10/06 19:34:42;;;;;;;3.67;1.58;;;;;;;15.14;100.00;98876.44;15304090;19;20022;-52
2023/10/06 19:40:07;;;;;;;3.08;1.30;;;;;;;15.07;100.00;98871.75;15305200;19;20389;-50
2023/10/06 19:45:35;;;;;;;3.08;1.38;;;;;;;15.08;100.00;98870.72;15308596;19;20014;-48
2023/10/06 19:51:05;;;;;;;3.17;1.77;;;;;;;15.03;100.00;98869.56;15305541;19;20582;-51
2023/10/06 19:56:30;;;;;;;4.38;1.60;;;;;;;14.96;100.00;98872.16;15305929;19;20021;-49
2023/10/06 20:01:58;;;;;;;3.88;1.50;;;;;;;14.95;100.00;98867.75;15308674;19;20016;-48
2023/10/06 20:07:23;;;;;;;2.47;1.48;;;;;;;14.91;100.00;98860.97;15305970;19;20020;-50
2023/10/06 20:12:47;;;;;;;3.25;1.65;;;;;;;14.94;100.00;98852.50;15303986;19;20021;-49
2023/10/06 20:18:16;;;;;;;3.17;1.60;;;;;;;14.92;100.00;98849.97;15302723;19;20456;-49
2023/10/06 20:23:40;;;;;;;3.08;1.70;;;;;;;14.90;100.00;98851.16;15307150;19;20467;-49
2023/10/06 20:29:09;;;;;;;1.92;1.40;;;;;;;14.91;100.00;98847.41;15302596;19;20020;-52
2023/10/06 20:34:37;;;;;;;2.78;1.70;;;;;;;14.93;100.00;98843.50;15304252;19;20014;-52
2023/10/06 20:40:03;;;;;;;2.80;1.42;;;;;;;14.93;100.00;98853.50;15306188;19;20024;-48
2023/10/06 20:45:27;;;;;;;2.08;1.50;;;;;;;14.93;100.00;98858.94;15282051;19;20080;-51
2023/10/06 20:50:54;;;;;;;4.20;1.60;;;;;;;14.96;100.00;98864.00;15286892;19;20637;-52
2023/10/06 20:56:19;;;;;;;2.13;1.45;;;;;;;14.96;100.00;98855.88;15286103;19;20029;-49
2023/10/06 21:01:46;;;;;;;2.17;1.30;;;;;;;15.02;100.00;98851.59;15265744;19;20434;-50
2023/10/06 21:07:14;;;;;;;2.60;1.48;;;;;;;15.04;100.00;98853.09;15285739;19;21041;-54
2023/10/06 21:12:41;;;;;;;2.03;1.30;;;;;;;15.05;100.00;98845.81;15290232;19;20382;-52
2023/10/06 21:18:06;;;;;;;2.47;1.40;;;;;;;15.10;100.00;98848.81;15280688;19;20014;-57
2023/10/06 21:23:35;;;;;;;2.67;1.40;;;;;;;15.13;100.00;98845.75;15290019;19;20030;-51
2023/10/06 21:29:01;;;;;;;2.10;1.30;;;;;;;15.17;100.00;98848.94;15282999;19;20037;-50
2023/10/06 21:34:26;;;;;;;2.45;1.30;;;;;;;15.20;100.00;98843.16;15288744;19;20021;-49
2023/10/06 21:39:54;;;;;;;2.22;1.20;;;;;;;15.21;100.00;98847.56;15285177;19;20090;-49
2023/10/06 21:45:19;;;;;;;2.47;1.40;;;;;;;15.18;100.00;98840.63;15286238;19;20022;-51
2023/10/06 21:50:44;;;;;;;2.30;1.33;;;;;;;15.09;100.00;98829.00;15281807;19;20351;-53
2023/10/06 21:56:14;;;;;;;2.63;1.40;;;;;;;15.13;100.00;98842.19;15279082;19;20018;-50
2023/10/06 22:01:39;;;;;;;2.70;1.20;;;;;;;15.16;100.00;98841.84;15286235;19;20026;-49
2023/10/06 22:07:05;;;;;;;2.10;1.38;;;;;;;15.19;100.00;98838.75;15283805;19;20783;-50
2023/10/06 22:12:32;;;;;;;2.78;1.40;;;;;;;15.17;100.00;98838.94;15283850;19;20490;-49
2023/10/06 22:17:58;;;;;;;2.38;1.27;;;;;;;15.09;100.00;98837.13;15280359;19;20036;-51
2023/10/06 22:23:23;;;;;;;2.08;1.30;;;;;;;14.99;100.00;98828.41;15279134;19;20479;-52
2023/10/06 22:28:50;;;;;;;2.80;1.60;;;;;;;14.87;100.00;98829.81;15270354;19;20015;-50
2023/10/06 22:34:15;;;;;;;3.25;1.60;;;;;;;14.72;100.00;98819.72;15275901;19;20014;-48
2023/10/06 22:39:41;;;;;;;3.38;1.60;;;;;;;14.65;100.00;98818.72;15272608;19;20014;-50
2023/10/06 22:45:08;;;;;;;1.77;1.40;;;;;;;14.57;100.00;98816.91;15283081;19;20019;-48
2023/10/06 22:50:36;;;;;;;3.22;1.60;;;;;;;14.50;100.00;98805.06;15282820;19;20023;-53
2023/10/06 22:56:07;;;;;;;2.70;1.75;;;;;;;14.46;100.00;98798.31;15273742;19;20025;-52
2023/10/06 23:01:36;;;;;;;2.55;1.52;;;;;;;14.44;100.00;98795.78;15282084;19;20097;-48
2023/10/06 23:07:00;;;;;;;3.03;1.58;;;;;;;14.46;100.00;98801.88;15279391;19;20086;-50
2023/10/06 23:12:25;;;;;;;2.33;1.40;;;;;;;14.38;100.00;98796.50;15281387;19;20050;-51
2023/10/06 23:17:55;;;;;;;2.38;1.35;;;;;;;14.29;100.00;98806.53;15276792;19;20031;-48
2023/10/06 23:23:22;;;;;;;2.75;1.50;;;;;;;14.19;100.00;98805.88;15280635;19;20391;-48
2023/10/06 23:28:49;;;;;;;2.95;1.70;;;;;;;14.10;100.00;98806.94;15273337;19;20085;-53
2023/10/06 23:34:16;;;;;;;1.83;1.40;;;;;;;14.11;100.00;98806.75;15278298;19;20045;-52
2023/10/06 23:39:41;;;;;;;2.75;1.50;;;;;;;14.20;100.00;98795.88;15277225;19;20383;-50
2023/10/06 23:45:14;;;;;;;4.05;1.85;;;;;;;14.23;100.00;98798.25;15280034;19;20014;-51
2023/10/06 23:50:51;;;;;;;3.22;1.55;;;;;;;14.18;100.00;98796.91;15278914;19;20634;-51
2023/10/06 23:56:30;;;;;;;2.80;1.48;;;;;;;14.11;100.00;98800.50;15271769;19;20430;-53
